createdAt,value
2022-12-14T00:21:08.176Z,-2.11
2022-12-14T00:49:25.156Z,-1.88
2022-12-14T01:17:40.889Z,-1.5
2022-12-14T01:46:40.670Z,-1.59
2022-12-14T02:15:20.845Z,-1.58
2022-12-14T02:44:12.572Z,-1.47
2022-12-14T03:12:59.633Z,-1.52
2022-12-14T03:41:49.490Z,-1.75
2022-12-14T04:10:04.580Z,-1.49
2022-12-14T04:38:59.526Z,-1.58
2022-12-14T05:07:27.499Z,-1.38
2022-12-14T05:35:45.678Z,-1.22
2022-12-14T06:03:59.303Z,-1.46
2022-12-14T06:32:42.061Z,-1.8
2022-12-14T07:01:51.014Z,-1.4
2022-12-14T07:30:20.781Z,-1.55
2022-12-14T07:59:27.977Z,-1.22
2022-12-14T08:28:19.110Z,-1.02
2022-12-14T08:57:11.237Z,-0.78
2022-12-14T09:26:11.202Z,-0.64
2022-12-14T09:55:05.415Z,-0.46
2022-12-14T10:23:53.733Z,-0.38
2022-12-14T10:52:40.525Z,-0.79
2022-12-14T11:21:29.731Z,-0.62
2022-12-14T11:50:36.477Z,-0.41
2022-12-14T12:19:39.087Z,-0.43
2022-12-14T12:48:34.370Z,-0.4
2022-12-14T13:17:27.848Z,-0.4
2022-12-14T13:46:21.553Z,-0.44
2022-12-14T14:15:04.041Z,-0.39
2022-12-14T14:43:56.113Z,-0.43
2022-12-14T15:12:43.147Z,-0.4
2022-12-14T15:41:37.740Z,-0.45
2022-12-14T16:09:55.728Z,-0.38
2022-12-14T16:38:11.551Z,-0.31
2022-12-14T17:07:06.197Z,-0.31
2022-12-14T17:36:01.636Z,-0.28
2022-12-14T18:04:57.466Z,-0.26
2022-12-14T18:33:36.832Z,-0.27
2022-12-14T19:02:34.345Z,-0.34
2022-12-14T19:31:05.479Z,-0.35
2022-12-14T19:59:41.776Z,-0.42
2022-12-14T20:28:34.487Z,-0.38
2022-12-14T20:57:27.869Z,-0.45
2022-12-14T21:26:19.182Z,-0.59
2022-12-14T21:55:12.720Z,-0.47
2022-12-14T22:24:09.283Z,-0.8
2022-12-14T22:52:57.113Z,-0.6
2022-12-14T23:21:42.880Z,-0.68
2022-12-14T23:49:55.876Z,-0.75
